createdAt,value
2018-03-18T07:46:59.142Z,41.00
2018-03-18T07:49:25.987Z,40.90
2018-03-18T07:51:52.270Z,41.00
2018-03-18T07:54:18.496Z,41.30
2018-03-18T07:56:44.721Z,41.30
2018-03-18T07:59:10.952Z,41.70
2018-03-18T08:01:37.198Z,41.70
2018-03-18T08:04:03.872Z,41.90
2018-03-18T08:06:30.159Z,41.70
2018-03-18T08:08:56.392Z,41.80
2018-03-18T08:11:22.662Z,42.00
2018-03-18T08:13:48.898Z,42.00
2018-03-18T08:16:15.178Z,42.10
2018-03-18T08:18:42.113Z,42.30
2018-03-18T08:21:08.348Z,42.30
2018-03-18T08:23:34.577Z,42.20
2018-03-18T08:26:00.791Z,42.20
2018-03-18T08:28:27.054Z,42.20
2018-03-18T08:30:53.287Z,42.20
2018-03-18T08:33:19.513Z,42.40
2018-03-18T08:35:45.757Z,42.60
2018-03-18T08:38:12.006Z,42.70
2018-03-18T08:40:38.267Z,42.70
2018-03-18T08:43:04.849Z,42.80
2018-03-18T08:45:31.691Z,42.90
2018-03-18T08:47:57.940Z,42.90
2018-03-18T08:50:24.948Z,43.00
2018-03-18T08:52:51.227Z,42.90
2018-03-18T08:55:18.066Z,43.00
2018-03-18T08:57:44.310Z,43.00
2018-03-18T09:00:11.316Z,43.00
2018-03-18T09:02:37.560Z,43.00
2018-03-18T09:05:03.847Z,43.10
2018-03-18T09:07:30.094Z,43.00
2018-03-18T09:09:56.339Z,43.00
2018-03-18T09:12:22.587Z,43.10
2018-03-18T09:14:48.827Z,43.00
2018-03-18T09:17:15.742Z,43.00
2018-03-18T09:19:41.975Z,42.90
2018-03-18T09:22:08.925Z,43.00
2018-03-18T09:24:35.257Z,43.00
2018-03-18T09:27:01.481Z,43.00
2018-03-18T09:29:27.747Z,43.00
2018-03-18T09:31:53.987Z,42.90
2018-03-18T09:34:20.211Z,42.90
2018-03-18T09:36:46.808Z,42.90
2018-03-18T09:39:14.230Z,42.80
2018-03-18T09:41:41.098Z,42.80
2018-03-18T09:44:07.332Z,42.90
2018-03-18T09:46:33.552Z,42.80
2018-03-18T09:48:59.798Z,42.90
2018-03-18T09:51:26.052Z,42.90
2018-03-18T09:53:52.341Z,42.90
2018-03-18T09:56:18.572Z,43.00
2018-03-18T09:58:45.467Z,43.00
2018-03-18T10:01:11.699Z,43.00
2018-03-18T10:03:37.923Z,43.00
2018-03-18T10:06:04.206Z,43.00
2018-03-18T10:08:30.431Z,43.00
2018-03-18T10:10:57.442Z,43.00
2018-03-18T10:13:23.698Z,43.00
2018-03-18T10:15:50.778Z,43.00
2018-03-18T10:18:17.125Z,43.00
2018-03-18T10:20:43.977Z,43.00
2018-03-18T10:23:10.231Z,43.00
2018-03-18T10:25:36.526Z,43.00
2018-03-18T10:28:03.478Z,43.00
2018-03-18T10:30:30.515Z,43.10
2018-03-18T10:32:56.763Z,43.00
2018-03-18T10:35:22.991Z,43.00
2018-03-18T10:37:49.212Z,43.00
2018-03-18T10:40:15.799Z,42.90
2018-03-18T10:42:42.852Z,43.00
2018-03-18T10:45:09.081Z,43.20
2018-03-18T10:47:35.690Z,43.30
2018-03-18T10:50:02.002Z,43.40
2018-03-18T10:52:28.534Z,43.40
2018-03-18T10:54:54.835Z,43.40
2018-03-18T10:57:21.067Z,43.50
2018-03-18T10:59:48.440Z,43.50
2018-03-18T11:02:15.260Z,43.50
2018-03-18T11:04:42.114Z,43.50
2018-03-18T11:07:08.363Z,43.60
2018-03-18T11:09:34.620Z,43.60
2018-03-18T11:12:00.879Z,43.60
2018-03-18T11:14:27.126Z,43.50
2018-03-18T11:16:53.371Z,43.60
2018-03-18T11:19:19.616Z,43.60
2018-03-18T11:21:46.618Z,43.60
2018-03-18T11:24:12.896Z,43.60
2018-03-18T11:26:39.126Z,43.50
2018-03-18T11:29:05.354Z,43.60
2018-03-18T11:31:31.614Z,43.60
2018-03-18T11:33:57.854Z,43.70
2018-03-18T11:36:24.119Z,43.70
2018-03-18T11:38:50.367Z,43.80
2018-03-18T11:41:16.589Z,43.80
2018-03-18T11:43:42.824Z,43.80
2018-03-18T11:46:09.079Z,43.80
2018-03-18T11:48:35.365Z,43.90
2018-03-18T11:51:02.970Z,43.90
2018-03-18T11:53:29.211Z,43.80
2018-03-18T11:55:55.450Z,43.90
2018-03-18T11:58:22.443Z,43.90
2018-03-18T12:00:48.704Z,43.90
2018-03-18T12:03:14.972Z,43.90
2018-03-18T12:05:41.199Z,43.90
2018-03-18T12:08:07.746Z,43.90
2018-03-18T12:10:33.975Z,43.80
2018-03-18T12:13:00.232Z,43.80
2018-03-18T12:15:26.494Z,43.70
2018-03-18T12:17:53.525Z,43.70
2018-03-18T12:20:19.747Z,43.70
2018-03-18T12:22:45.990Z,43.70
2018-03-18T12:25:12.255Z,43.70
2018-03-18T12:27:39.258Z,43.80
2018-03-18T12:45:51.821Z,43.10
2018-03-18T12:48:18.860Z,43.20
2018-03-18T12:53:23.894Z,43.10
2018-03-18T12:55:50.126Z,43.10
2018-03-18T12:58:16.371Z,43.20
2018-03-18T13:00:42.629Z,43.20
2018-03-18T13:03:08.861Z,43.20
2018-03-18T13:05:36.039Z,43.30
2018-03-18T13:08:02.285Z,43.30
2018-03-18T13:10:28.569Z,43.30
2018-03-18T13:12:55.580Z,43.30
2018-03-18T13:15:22.103Z,43.30
2018-03-18T13:17:48.381Z,43.30
2018-03-18T13:20:14.623Z,43.30
2018-03-18T13:22:40.898Z,43.40
2018-03-18T13:25:07.134Z,43.30
2018-03-18T13:27:34.148Z,43.30
2018-03-18T13:30:00.415Z,43.20
2018-03-18T13:32:26.631Z,43.20
2018-03-18T13:34:52.862Z,43.20
2018-03-18T13:37:19.102Z,43.40
2018-03-18T13:39:45.415Z,43.40
2018-03-18T13:42:11.679Z,43.40
2018-03-18T13:44:38.686Z,43.30
2018-03-18T13:47:04.935Z,43.30
2018-03-18T13:49:31.178Z,43.20
2018-03-18T13:51:57.402Z,43.20
2018-03-18T13:54:23.650Z,43.20
2018-03-18T13:56:49.906Z,43.20
2018-03-18T13:59:16.126Z,43.40
2018-03-18T14:01:42.347Z,43.50
2018-03-18T14:04:08.598Z,43.50
2018-03-18T14:06:34.850Z,43.50
2018-03-18T14:09:01.097Z,43.50
2018-03-18T14:11:27.317Z,43.50
2018-03-18T14:13:54.322Z,43.00
2018-03-18T14:16:20.561Z,43.50
2018-03-18T14:18:47.074Z,43.50
2018-03-18T14:21:13.296Z,43.50
2018-03-18T14:23:39.555Z,43.50
2018-03-18T14:26:05.787Z,43.50
2018-03-18T14:28:32.014Z,43.50
2018-03-18T14:30:58.271Z,43.40
2018-03-18T14:33:24.553Z,43.50
2018-03-18T14:35:51.246Z,43.40
2018-03-18T14:38:17.483Z,43.30
2018-03-18T14:40:43.726Z,43.20
2018-03-18T14:43:10.014Z,43.30
2018-03-18T14:45:36.250Z,43.10
2018-03-18T14:48:03.254Z,43.10
2018-03-18T14:50:29.493Z,43.10
2018-03-18T14:52:55.707Z,43.20
2018-03-18T14:55:21.986Z,43.30
2018-03-18T14:57:48.218Z,43.30
2018-03-18T15:00:15.210Z,43.40
2018-03-18T15:02:41.444Z,43.40
2018-03-18T15:05:07.680Z,43.20
2018-03-18T15:07:33.959Z,43.20
2018-03-18T15:10:00.191Z,43.10
2018-03-18T15:12:26.415Z,42.90
2018-03-18T15:14:52.624Z,43.20
2018-03-18T15:17:18.854Z,43.20
2018-03-18T15:19:45.110Z,42.70
2018-03-18T15:22:11.355Z,42.80
2018-03-18T15:24:37.577Z,42.60
2018-03-18T15:27:03.796Z,42.60
2018-03-18T15:29:30.019Z,42.60
2018-03-18T15:31:56.278Z,42.60
2018-03-18T15:34:22.694Z,42.80
2018-03-18T15:36:48.922Z,42.70
2018-03-18T15:39:15.165Z,42.70
2018-03-18T15:41:41.402Z,43.00
2018-03-18T15:44:07.659Z,43.00
2018-03-18T15:46:33.906Z,43.20
2018-03-18T15:49:00.147Z,43.20
2018-03-18T15:51:26.394Z,43.70
2018-03-18T15:53:52.632Z,43.20
2018-03-18T15:56:19.664Z,43.20
2018-03-18T15:58:45.906Z,43.20
2018-03-18T16:01:12.162Z,43.20
2018-03-18T16:03:38.433Z,43.20
2018-03-18T16:06:05.435Z,43.80
2018-03-18T16:08:31.689Z,43.80
2018-03-18T16:10:57.913Z,43.20
2018-03-18T16:13:24.148Z,43.20
2018-03-18T16:15:50.365Z,43.80
2018-03-18T16:18:16.594Z,43.20
2018-03-18T16:20:42.855Z,43.10
2018-03-18T16:23:09.071Z,43.20
2018-03-18T16:25:35.289Z,43.20
2018-03-18T16:28:01.526Z,43.20
2018-03-18T16:30:27.793Z,43.20
2018-03-18T16:32:54.019Z,43.20
2018-03-18T16:35:20.299Z,43.20
2018-03-18T16:37:46.570Z,43.20
2018-03-18T16:40:13.010Z,43.20
2018-03-18T16:42:39.227Z,43.30
2018-03-18T16:45:05.468Z,43.30
2018-03-18T16:47:31.700Z,43.30
2018-03-18T16:49:57.969Z,43.20
2018-03-18T16:52:24.214Z,43.20
2018-03-18T16:54:50.438Z,43.30
2018-03-18T16:57:16.687Z,43.20
2018-03-18T16:59:42.910Z,43.20
2018-03-18T17:02:09.192Z,43.30
2018-03-18T17:04:35.419Z,43.30
2018-03-18T17:07:01.655Z,43.30
2018-03-18T17:09:27.896Z,43.20
2018-03-18T17:11:54.145Z,43.20
2018-03-18T17:14:20.422Z,43.10
2018-03-18T17:16:46.654Z,43.10
2018-03-18T17:19:12.875Z,43.10
2018-03-18T17:21:39.122Z,43.10
2018-03-18T17:24:05.357Z,43.10
2018-03-18T17:26:31.628Z,43.10
2018-03-18T17:28:57.883Z,43.10
2018-03-18T17:31:24.125Z,43.10
2018-03-18T17:33:50.374Z,43.10
2018-03-18T17:36:16.610Z,43.20
2018-03-18T17:38:42.886Z,43.20
2018-03-18T17:41:09.102Z,43.20
2018-03-18T17:43:35.324Z,43.20
2018-03-18T17:46:01.582Z,43.20
2018-03-18T17:48:27.815Z,41.60
2018-03-18T17:50:54.125Z,40.40
2018-03-18T17:53:20.347Z,41.10
2018-03-18T17:55:47.187Z,39.90
2018-03-18T17:58:13.466Z,38.30
2018-03-18T18:00:39.697Z,38.40
2018-03-18T18:03:05.916Z,41.60
2018-03-18T18:05:32.174Z,42.00
2018-03-18T18:07:58.419Z,41.90
2018-03-18T18:10:25.413Z,42.20
2018-03-18T18:12:52.380Z,42.20
2018-03-18T18:15:18.784Z,41.70
2018-03-18T18:17:45.030Z,41.90
2018-03-18T18:20:11.485Z,41.40
2018-03-18T18:22:37.715Z,41.50
2018-03-18T18:25:04.947Z,41.60
2018-03-18T18:27:31.284Z,41.70
2018-03-18T18:29:57.521Z,41.60
2018-03-18T18:32:23.771Z,41.80
2018-03-18T18:34:50.298Z,42.00
2018-03-18T18:37:16.578Z,42.10
2018-03-18T18:39:42.795Z,42.10
2018-03-18T18:42:09.022Z,42.30
2018-03-18T18:44:35.266Z,42.30
2018-03-18T18:47:01.510Z,42.60
2018-03-18T18:49:27.892Z,42.50
2018-03-18T18:51:54.896Z,42.70
2018-03-18T18:54:21.863Z,42.60
2018-03-18T18:56:48.111Z,42.70
2018-03-18T18:59:14.381Z,42.80
2018-03-18T19:01:40.820Z,42.60
2018-03-18T19:04:07.054Z,42.80
2018-03-18T19:06:33.267Z,43.00
2018-03-18T19:08:59.481Z,42.90
2018-03-18T19:11:25.726Z,42.90
2018-03-18T19:13:51.990Z,42.40
2018-03-18T19:16:18.227Z,42.90
2018-03-18T19:18:44.561Z,43.10
2018-03-18T19:21:10.806Z,42.90
2018-03-18T19:23:37.031Z,43.00
2018-03-18T19:26:03.474Z,43.10
2018-03-18T19:28:29.846Z,43.20
2018-03-18T19:30:56.072Z,43.30
2018-03-18T19:33:22.584Z,43.40
2018-03-18T19:35:49.026Z,43.40
2018-03-18T19:38:15.292Z,43.60
2018-03-18T19:40:41.519Z,43.70
2018-03-18T19:43:07.766Z,43.80
2018-03-18T19:45:34.026Z,43.80
2018-03-18T19:48:00.264Z,43.90
2018-03-18T19:50:26.531Z,43.90
2018-03-18T19:52:52.871Z,43.90
2018-03-18T19:55:19.098Z,44.00
2018-03-18T19:57:45.328Z,44.10
2018-03-18T20:00:12.330Z,44.20
2018-03-18T20:02:38.584Z,44.10
2018-03-18T20:05:04.834Z,44.20
2018-03-18T20:07:31.055Z,44.30
2018-03-18T20:09:57.330Z,44.30
2018-03-18T20:12:23.550Z,44.40
2018-03-18T20:14:49.806Z,44.40
2018-03-18T20:17:16.059Z,44.50
2018-03-18T20:19:42.625Z,44.50
2018-03-18T20:22:08.884Z,41.70
2018-03-18T20:24:35.122Z,43.40
2018-03-18T20:27:01.381Z,43.80
2018-03-18T20:29:27.612Z,44.00
2018-03-18T20:31:53.854Z,44.10
2018-03-18T20:34:20.116Z,44.10
2018-03-18T20:36:46.815Z,44.30
2018-03-18T20:39:13.845Z,44.40
2018-03-18T20:41:40.810Z,44.40
2018-03-18T20:44:07.102Z,44.30
2018-03-18T20:46:33.365Z,44.40
2018-03-18T20:48:59.891Z,44.40
2018-03-18T20:51:26.915Z,44.40
2018-03-18T20:53:53.148Z,43.90
2018-03-18T20:56:19.373Z,44.20
2018-03-18T20:58:45.648Z,44.30
2018-03-18T21:01:11.871Z,44.20
2018-03-18T21:03:38.214Z,44.20
2018-03-18T21:06:04.461Z,44.20
2018-03-18T21:08:31.439Z,44.20
2018-03-18T21:10:58.457Z,44.20
2018-03-18T21:13:25.417Z,44.10
2018-03-18T21:15:51.705Z,44.10
2018-03-18T21:18:18.278Z,44.10
2018-03-18T21:20:44.490Z,44.20
2018-03-18T21:23:10.847Z,44.20
2018-03-18T21:25:37.067Z,44.10
2018-03-18T21:28:03.354Z,44.10
2018-03-18T21:30:29.573Z,44.20
2018-03-18T21:32:55.814Z,44.20
2018-03-18T21:35:22.048Z,44.20
2018-03-18T21:37:48.287Z,44.20
2018-03-18T21:40:14.556Z,44.20
2018-03-18T21:42:40.800Z,44.20
2018-03-18T21:45:07.393Z,44.20
2018-03-18T21:47:34.396Z,43.60
2018-03-18T21:50:00.818Z,43.60
2018-03-18T21:52:27.882Z,43.80
2018-03-18T21:54:54.136Z,43.80
2018-03-18T21:57:20.373Z,43.80
2018-03-18T21:59:46.609Z,43.90
2018-03-18T22:02:12.821Z,43.90
2018-03-18T22:04:39.082Z,43.80
2018-03-18T22:07:05.315Z,43.80
2018-03-18T22:09:31.537Z,43.70
2018-03-18T22:11:58.508Z,43.70
2018-03-18T22:14:24.756Z,43.60
2018-03-18T22:16:51.008Z,43.60
2018-03-18T22:19:17.240Z,43.70
2018-03-18T22:21:44.258Z,43.60
2018-03-18T22:24:10.505Z,43.60
2018-03-18T22:26:36.724Z,43.60
2018-03-18T22:29:03.043Z,43.60
2018-03-18T22:31:29.235Z,43.90
2018-03-18T22:33:55.479Z,42.90
2018-03-18T22:36:22.483Z,41.60
2018-03-18T22:38:48.730Z,42.00
2018-03-18T22:41:15.018Z,40.40
2018-03-18T22:43:41.248Z,39.60
2018-03-18T22:46:08.246Z,39.40
2018-03-18T22:48:34.494Z,39.40
2018-03-18T22:51:00.714Z,40.40
2018-03-18T22:53:26.978Z,40.60
2018-03-18T22:55:53.198Z,40.80
2018-03-18T22:58:19.457Z,40.90
2018-03-18T23:00:45.697Z,41.10
2018-03-18T23:03:11.912Z,41.10
2018-03-18T23:05:38.179Z,41.20
2018-03-18T23:08:04.418Z,41.40
2018-03-18T23:10:31.413Z,41.50
2018-03-18T23:12:57.658Z,41.40
2018-03-18T23:15:23.875Z,41.50
2018-03-18T23:17:50.127Z,41.60
2018-03-18T23:20:16.385Z,41.60
2018-03-18T23:22:42.658Z,41.70
2018-03-18T23:25:08.876Z,41.70
2018-03-18T23:27:36.280Z,41.70
